sensor_id;sensor_type;location;lat;lon;timestamp;pressure;altitude;pressure_sealevel;temperature;humidity
59154;BME280;44935;48.944;9.418;2023-06-10T00:01:07;98292.81;;;18.44;42.30
59154;BME280;44935;48.944;9.418;2023-06-10T00:03:34;98292.17;;;18.45;42.24
59154;BME280;44935;48.944;9.418;2023-06-10T00:06:01;98291.25;;;18.49;42.11
59154;BME280;44935;48.944;9.418;2023-06-10T00:08:29;98293.07;;;18.49;41.80
59154;BME280;44935;48.944;9.418;2023-06-10T00:10:56;98294.07;;;18.35;42.16
59154;BME280;44935;48.944;9.418;2023-06-10T00:13:23;98293.31;;;19.01;40.96
59154;BME280;44935;48.944;9.418;2023-06-10T00:15:49;98294.88;;;18.96;41.63
59154;BME280;44935;48.944;9.418;2023-06-10T00:18:16;98297.29;;;18.46;42.20
59154;BME280;44935;48.944;9.418;2023-06-10T00:20:43;98298.66;;;18.50;42.80
59154;BME280;44935;48.944;9.418;2023-06-10T00:23:10;98296.33;;;18.07;43.06
59154;BME280;44935;48.944;9.418;2023-06-10T00:25:37;98291.51;;;18.48;42.04
59154;BME280;44935;48.944;9.418;2023-06-10T00:28:04;98294.44;;;18.64;42.34
59154;BME280;44935;48.944;9.418;2023-06-10T00:30:31;98296.19;;;18.36;42.69
59154;BME280;44935;48.944;9.418;2023-06-10T00:32:58;98295.35;;;18.11;43.18
59154;BME280;44935;48.944;9.418;2023-06-10T00:35:25;98296.16;;;17.86;43.08
59154;BME280;44935;48.944;9.418;2023-06-10T00:37:52;98294.98;;;17.87;43.63
59154;BME280;44935;48.944;9.418;2023-06-10T00:40:19;98294.63;;;17.48;44.18
59154;BME280;44935;48.944;9.418;2023-06-10T00:42:46;98292.26;;;17.50;44.47
59154;BME280;44935;48.944;9.418;2023-06-10T00:45:13;98294.19;;;17.20;44.70
59154;BME280;44935;48.944;9.418;2023-06-10T00:47:40;98299.93;;;17.30;44.32
59154;BME280;44935;48.944;9.418;2023-06-10T00:50:08;98298.43;;;17.42;44.09
59154;BME280;44935;48.944;9.418;2023-06-10T00:52:35;98305.87;;;17.27;43.88
59154;BME280;44935;48.944;9.418;2023-06-10T00:55:04;98301.53;;;17.37;44.04
59154;BME280;44935;48.944;9.418;2023-06-10T00:57:31;98306.06;;;17.60;43.56
59154;BME280;44935;48.944;9.418;2023-06-10T00:59:57;98302.47;;;17.76;43.26
59154;BME280;44935;48.944;9.418;2023-06-10T01:02:26;98297.92;;;17.78;43.31
59154;BME280;44935;48.944;9.418;2023-06-10T01:04:54;98301.48;;;18.05;42.77
59154;BME280;44935;48.944;9.418;2023-06-10T01:07:24;98301.17;;;18.23;41.51
59154;BME280;44935;48.944;9.418;2023-06-10T01:09:58;98300.17;;;18.88;41.38
59154;BME280;44935;48.944;9.418;2023-06-10T01:12:32;98300.82;;;18.32;41.53
59154;BME280;44935;48.944;9.418;2023-06-10T01:15:01;98296.59;;;18.37;41.14
59154;BME280;44935;48.944;9.418;2023-06-10T01:17:29;98299.25;;;18.68;41.15
59154;BME280;44935;48.944;9.418;2023-06-10T01:19:56;98293.19;;;19.10;40.45
59154;BME280;44935;48.944;9.418;2023-06-10T01:22:24;98293.56;;;19.22;40.23
59154;BME280;44935;48.944;9.418;2023-06-10T01:24:52;98292.72;;;18.78;40.81
59154;BME280;44935;48.944;9.418;2023-06-10T01:27:21;98292.46;;;18.70;40.71
59154;BME280;44935;48.944;9.418;2023-06-10T01:29:54;98292.19;;;18.80;40.76
59154;BME280;44935;48.944;9.418;2023-06-10T01:32:29;98290.90;;;18.56;40.95
59154;BME280;44935;48.944;9.418;2023-06-10T01:34:59;98289.91;;;19.00;40.09
59154;BME280;44935;48.944;9.418;2023-06-10T01:37:29;98289.62;;;19.27;39.84
59154;BME280;44935;48.944;9.418;2023-06-10T01:39:58;98295.44;;;18.51;40.92
59154;BME280;44935;48.944;9.418;2023-06-10T01:42:26;98292.97;;;19.05;39.79
59154;BME280;44935;48.944;9.418;2023-06-10T01:44:53;98298.75;;;19.31;39.61
59154;BME280;44935;48.944;9.418;2023-06-10T01:47:20;98299.01;;;18.72;40.40
59154;BME280;44935;48.944;9.418;2023-06-10T01:49:47;98292.46;;;19.50;39.57
59154;BME280;44935;48.944;9.418;2023-06-10T01:52:14;98298.16;;;19.36;39.25
59154;BME280;44935;48.944;9.418;2023-06-10T01:54:41;98299.14;;;19.68;39.01
59154;BME280;44935;48.944;9.418;2023-06-10T01:57:08;98300.92;;;19.33;38.85
59154;BME280;44935;48.944;9.418;2023-06-10T01:59:35;98297.62;;;19.91;38.36
59154;BME280;44935;48.944;9.418;2023-06-10T02:02:02;98297.39;;;19.34;38.68
59154;BME280;44935;48.944;9.418;2023-06-10T02:04:29;98297.32;;;19.22;39.09
59154;BME280;44935;48.944;9.418;2023-06-10T02:06:56;98300.21;;;19.89;38.42
59154;BME280;44935;48.944;9.418;2023-06-10T02:09:22;98300.91;;;20.17;37.92
59154;BME280;44935;48.944;9.418;2023-06-10T02:11:49;98298.99;;;19.99;37.42
59154;BME280;44935;48.944;9.418;2023-06-10T02:14:16;98299.96;;;20.37;36.82
59154;BME280;44935;48.944;9.418;2023-06-10T02:16:43;98304.20;;;20.40;37.04
59154;BME280;44935;48.944;9.418;2023-06-10T02:19:10;98302.91;;;19.97;37.55
59154;BME280;44935;48.944;9.418;2023-06-10T02:21:37;98303.50;;;20.26;37.10
59154;BME280;44935;48.944;9.418;2023-06-10T02:24:05;98301.41;;;20.38;37.25
59154;BME280;44935;48.944;9.418;2023-06-10T02:26:32;98299.97;;;20.20;37.20
59154;BME280;44935;48.944;9.418;2023-06-10T02:28:59;98302.87;;;20.61;36.74
59154;BME280;44935;48.944;9.418;2023-06-10T02:31:26;98307.41;;;20.50;36.58
59154;BME280;44935;48.944;9.418;2023-06-10T02:33:53;98306.21;;;20.37;36.77
59154;BME280;44935;48.944;9.418;2023-06-10T02:36:19;98310.03;;;20.43;36.95
59154;BME280;44935;48.944;9.418;2023-06-10T02:38:47;98314.53;;;20.53;36.88
59154;BME280;44935;48.944;9.418;2023-06-10T02:41:13;98315.10;;;20.35;37.15
59154;BME280;44935;48.944;9.418;2023-06-10T02:43:40;98314.73;;;19.85;37.68
59154;BME280;44935;48.944;9.418;2023-06-10T02:46:07;98315.64;;;19.87;37.80
59154;BME280;44935;48.944;9.418;2023-06-10T02:48:41;98313.79;;;20.01;37.27
59154;BME280;44935;48.944;9.418;2023-06-10T02:51:08;98315.30;;;20.14;37.22
59154;BME280;44935;48.944;9.418;2023-06-10T02:53:35;98311.00;;;20.15;37.30
59154;BME280;44935;48.944;9.418;2023-06-10T02:56:02;98312.29;;;19.81;37.93
59154;BME280;44935;48.944;9.418;2023-06-10T02:58:29;98313.00;;;20.18;37.30
59154;BME280;44935;48.944;9.418;2023-06-10T03:00:56;98315.23;;;19.63;38.29
59154;BME280;44935;48.944;9.418;2023-06-10T03:03:23;98318.58;;;18.92;40.01
59154;BME280;44935;48.944;9.418;2023-06-10T03:05:50;98319.63;;;18.50;40.50
59154;BME280;44935;48.944;9.418;2023-06-10T03:08:17;98323.68;;;18.37;40.79
59154;BME280;44935;48.944;9.418;2023-06-10T03:10:43;98324.19;;;18.29;41.25
59154;BME280;44935;48.944;9.418;2023-06-10T03:13:10;98326.93;;;18.02;41.80
59154;BME280;44935;48.944;9.418;2023-06-10T03:15:37;98326.73;;;17.88;42.06
59154;BME280;44935;48.944;9.418;2023-06-10T03:18:04;98328.24;;;17.67;42.49
59154;BME280;44935;48.944;9.418;2023-06-10T03:20:31;98327.96;;;17.68;42.67
59154;BME280;44935;48.944;9.418;2023-06-10T03:22:58;98329.58;;;17.43;42.76
59154;BME280;44935;48.944;9.418;2023-06-10T03:25:25;98335.39;;;17.59;42.64
59154;BME280;44935;48.944;9.418;2023-06-10T03:27:52;98335.64;;;17.70;42.33
59154;BME280;44935;48.944;9.418;2023-06-10T03:30:19;98338.40;;;17.75;42.60
59154;BME280;44935;48.944;9.418;2023-06-10T03:32:46;98341.72;;;17.79;42.53
59154;BME280;44935;48.944;9.418;2023-06-10T03:35:13;98344.66;;;18.09;42.00
59154;BME280;44935;48.944;9.418;2023-06-10T03:37:40;98349.21;;;18.07;41.97
59154;BME280;44935;48.944;9.418;2023-06-10T03:40:08;98352.42;;;18.41;41.61
59154;BME280;44935;48.944;9.418;2023-06-10T03:42:35;98353.61;;;18.41;41.24
59154;BME280;44935;48.944;9.418;2023-06-10T03:45:02;98351.29;;;16.65;43.48
59154;BME280;44935;48.944;9.418;2023-06-10T03:47:33;98350.82;;;15.74;46.44
59154;BME280;44935;48.944;9.418;2023-06-10T03:50:01;98352.46;;;14.69;48.87
59154;BME280;44935;48.944;9.418;2023-06-10T03:52:28;98353.43;;;15.70;46.87
59154;BME280;44935;48.944;9.418;2023-06-10T03:54:55;98354.58;;;18.32;43.00
59154;BME280;44935;48.944;9.418;2023-06-10T03:57:22;98357.97;;;18.23;42.46
59154;BME280;44935;48.944;9.418;2023-06-10T03:59:49;98356.89;;;17.51;43.99
59154;BME280;44935;48.944;9.418;2023-06-10T04:02:16;98361.01;;;18.10;42.21
59154;BME280;44935;48.944;9.418;2023-06-10T04:04:43;98360.99;;;18.33;41.79
59154;BME280;44935;48.944;9.418;2023-06-10T04:07:10;98361.81;;;18.48;41.20
59154;BME280;44935;48.944;9.418;2023-06-10T04:09:37;98360.07;;;18.67;41.48
59154;BME280;44935;48.944;9.418;2023-06-10T04:12:05;98358.86;;;18.10;42.22
59154;BME280;44935;48.944;9.418;2023-06-10T04:14:32;98362.42;;;18.41;41.98
59154;BME280;44935;48.944;9.418;2023-06-10T04:16:59;98363.32;;;18.64;41.39
59154;BME280;44935;48.944;9.418;2023-06-10T04:19:26;98363.76;;;19.01;40.63
59154;BME280;44935;48.944;9.418;2023-06-10T04:21:53;98366.80;;;19.16;40.67
59154;BME280;44935;48.944;9.418;2023-06-10T04:24:20;98367.26;;;19.54;39.83
59154;BME280;44935;48.944;9.418;2023-06-10T04:26:47;98369.74;;;19.51;40.77
59154;BME280;44935;48.944;9.418;2023-06-10T04:29:14;98367.67;;;19.47;40.28
59154;BME280;44935;48.944;9.418;2023-06-10T04:31:41;98372.50;;;19.38;40.34
59154;BME280;44935;48.944;9.418;2023-06-10T04:34:08;98375.21;;;18.28;42.35
59154;BME280;44935;48.944;9.418;2023-06-10T04:36:35;98376.18;;;19.32;41.41
59154;BME280;44935;48.944;9.418;2023-06-10T04:39:02;98372.47;;;19.27;41.17
59154;BME280;44935;48.944;9.418;2023-06-10T04:41:28;98373.53;;;18.95;41.56
59154;BME280;44935;48.944;9.418;2023-06-10T04:43:55;98375.99;;;19.71;41.44
59154;BME280;44935;48.944;9.418;2023-06-10T04:46:22;98377.31;;;19.48;40.58
59154;BME280;44935;48.944;9.418;2023-06-10T04:48:49;98375.42;;;19.62;40.61
59154;BME280;44935;48.944;9.418;2023-06-10T04:51:16;98379.35;;;19.76;40.52
59154;BME280;44935;48.944;9.418;2023-06-10T04:53:43;98381.17;;;19.23;40.99
59154;BME280;44935;48.944;9.418;2023-06-10T04:56:10;98379.97;;;19.76;40.53
59154;BME280;44935;48.944;9.418;2023-06-10T04:58:37;98379.33;;;20.13;39.75
59154;BME280;44935;48.944;9.418;2023-06-10T05:01:04;98378.77;;;19.89;40.57
59154;BME280;44935;48.944;9.418;2023-06-10T05:03:31;98383.83;;;20.37;39.86
59154;BME280;44935;48.944;9.418;2023-06-10T05:05:58;98385.03;;;20.51;39.38
59154;BME280;44935;48.944;9.418;2023-06-10T05:08:25;98382.88;;;20.53;39.72
59154;BME280;44935;48.944;9.418;2023-06-10T05:10:52;98382.34;;;20.46;39.55
59154;BME280;44935;48.944;9.418;2023-06-10T05:13:18;98378.83;;;20.19;40.74
59154;BME280;44935;48.944;9.418;2023-06-10T05:15:46;98381.94;;;20.41;40.09
59154;BME280;44935;48.944;9.418;2023-06-10T05:18:12;98382.51;;;21.11;39.43
59154;BME280;44935;48.944;9.418;2023-06-10T05:20:39;98381.22;;;21.02;38.48
59154;BME280;44935;48.944;9.418;2023-06-10T05:23:06;98382.90;;;20.81;38.20
59154;BME280;44935;48.944;9.418;2023-06-10T05:25:33;98384.55;;;21.80;37.50
59154;BME280;44935;48.944;9.418;2023-06-10T05:28:00;98388.98;;;21.23;38.72
59154;BME280;44935;48.944;9.418;2023-06-10T05:30:27;98387.97;;;22.10;37.73
59154;BME280;44935;48.944;9.418;2023-06-10T05:32:54;98388.83;;;21.63;38.09
59154;BME280;44935;48.944;9.418;2023-06-10T05:35:21;98387.98;;;21.55;37.67
59154;BME280;44935;48.944;9.418;2023-06-10T05:37:48;98386.71;;;21.85;37.38
59154;BME280;44935;48.944;9.418;2023-06-10T05:40:16;98392.86;;;21.97;37.82
59154;BME280;44935;48.944;9.418;2023-06-10T05:42:42;98391.56;;;21.05;39.25
59154;BME280;44935;48.944;9.418;2023-06-10T05:45:10;98392.75;;;21.30;38.87
59154;BME280;44935;48.944;9.418;2023-06-10T05:47:37;98393.72;;;21.83;38.26
59154;BME280;44935;48.944;9.418;2023-06-10T05:50:05;98394.70;;;21.08;39.00
59154;BME280;44935;48.944;9.418;2023-06-10T05:52:33;98397.36;;;21.48;38.77
59154;BME280;44935;48.944;9.418;2023-06-10T05:55:00;98399.93;;;21.79;37.84
59154;BME280;44935;48.944;9.418;2023-06-10T05:57:26;98399.15;;;22.20;37.69
59154;BME280;44935;48.944;9.418;2023-06-10T05:59:53;98395.58;;;22.35;37.33
59154;BME280;44935;48.944;9.418;2023-06-10T06:02:20;98397.76;;;22.31;37.53
59154;BME280;44935;48.944;9.418;2023-06-10T06:04:47;98400.78;;;22.25;37.55
59154;BME280;44935;48.944;9.418;2023-06-10T06:07:14;98398.14;;;22.40;37.67
59154;BME280;44935;48.944;9.418;2023-06-10T06:09:41;98399.07;;;22.34;37.80
59154;BME280;44935;48.944;9.418;2023-06-10T06:12:08;98398.15;;;21.07;39.59
59154;BME280;44935;48.944;9.418;2023-06-10T06:14:37;98398.78;;;21.80;38.27
59154;BME280;44935;48.944;9.418;2023-06-10T06:17:05;98398.56;;;21.36;38.92
59154;BME280;44935;48.944;9.418;2023-06-10T06:19:32;98399.54;;;21.93;38.67
59154;BME280;44935;48.944;9.418;2023-06-10T06:21:59;98396.49;;;22.12;38.23
59154;BME280;44935;48.944;9.418;2023-06-10T06:24:26;98396.82;;;21.47;38.89
59154;BME280;44935;48.944;9.418;2023-06-10T06:26:53;98398.68;;;21.51;38.93
59154;BME280;44935;48.944;9.418;2023-06-10T06:29:20;98396.66;;;21.99;38.30
59154;BME280;44935;48.944;9.418;2023-06-10T06:31:47;98394.95;;;22.36;37.92
59154;BME280;44935;48.944;9.418;2023-06-10T06:34:14;98393.72;;;22.11;37.53
59154;BME280;44935;48.944;9.418;2023-06-10T06:36:41;98396.83;;;22.50;38.01
59154;BME280;44935;48.944;9.418;2023-06-10T06:39:08;98398.54;;;22.22;38.13
59154;BME280;44935;48.944;9.418;2023-06-10T06:41:35;98401.02;;;22.73;37.57
59154;BME280;44935;48.944;9.418;2023-06-10T06:44:02;98402.89;;;22.77;37.35
59154;BME280;44935;48.944;9.418;2023-06-10T06:46:28;98404.00;;;22.80;37.20
59154;BME280;44935;48.944;9.418;2023-06-10T06:48:55;98403.85;;;22.47;37.38
59154;BME280;44935;48.944;9.418;2023-06-10T06:51:22;98403.44;;;22.77;37.36
59154;BME280;44935;48.944;9.418;2023-06-10T06:53:49;98405.99;;;22.88;37.15
59154;BME280;44935;48.944;9.418;2023-06-10T06:56:16;98403.71;;;23.40;36.54
59154;BME280;44935;48.944;9.418;2023-06-10T06:58:43;98403.04;;;23.33;36.59
59154;BME280;44935;48.944;9.418;2023-06-10T07:01:10;98402.43;;;23.45;36.07
59154;BME280;44935;48.944;9.418;2023-06-10T07:03:37;98402.90;;;23.23;36.72
59154;BME280;44935;48.944;9.418;2023-06-10T07:06:04;98405.51;;;23.05;36.40
59154;BME280;44935;48.944;9.418;2023-06-10T07:08:32;98405.50;;;23.37;36.06
59154;BME280;44935;48.944;9.418;2023-06-10T07:10:59;98405.43;;;23.83;35.76
59154;BME280;44935;48.944;9.418;2023-06-10T07:13:25;98411.57;;;23.58;35.77
59154;BME280;44935;48.944;9.418;2023-06-10T07:15:52;98414.60;;;23.63;36.36
59154;BME280;44935;48.944;9.418;2023-06-10T07:18:20;98411.72;;;21.69;38.76
59154;BME280;44935;48.944;9.418;2023-06-10T07:20:46;98413.73;;;23.38;36.06
59154;BME280;44935;48.944;9.418;2023-06-10T07:23:13;98415.35;;;23.01;37.14
59154;BME280;44935;48.944;9.418;2023-06-10T07:25:41;98412.51;;;24.11;35.72
59154;BME280;44935;48.944;9.418;2023-06-10T07:28:08;98410.52;;;22.26;38.21
59154;BME280;44935;48.944;9.418;2023-06-10T07:30:35;98414.94;;;23.24;37.39
59154;BME280;44935;48.944;9.418;2023-06-10T07:33:02;98413.00;;;23.61;36.33
59154;BME280;44935;48.944;9.418;2023-06-10T07:35:29;98410.45;;;24.82;34.92
59154;BME280;44935;48.944;9.418;2023-06-10T07:37:56;98413.82;;;23.52;37.18
59154;BME280;44935;48.944;9.418;2023-06-10T07:40:24;98408.34;;;24.49;34.35
59154;BME280;44935;48.944;9.418;2023-06-10T07:42:50;98410.09;;;24.26;35.79
59154;BME280;44935;48.944;9.418;2023-06-10T07:45:17;98404.08;;;24.42;35.47
59154;BME280;44935;48.944;9.418;2023-06-10T07:47:44;98404.51;;;24.57;34.53
59154;BME280;44935;48.944;9.418;2023-06-10T07:50:11;98409.61;;;23.02;36.85
59154;BME280;44935;48.944;9.418;2023-06-10T07:52:38;98409.74;;;23.47;35.93
59154;BME280;44935;48.944;9.418;2023-06-10T07:55:06;98401.88;;;24.35;35.10
59154;BME280;44935;48.944;9.418;2023-06-10T07:57:34;98403.46;;;24.21;35.15
59154;BME280;44935;48.944;9.418;2023-06-10T08:00:01;98403.50;;;24.22;35.91
59154;BME280;44935;48.944;9.418;2023-06-10T08:02:27;98405.94;;;23.93;34.68
59154;BME280;44935;48.944;9.418;2023-06-10T08:04:54;98403.95;;;22.66;36.57
59154;BME280;44935;48.944;9.418;2023-06-10T08:07:21;98403.43;;;24.09;35.46
59154;BME280;44935;48.944;9.418;2023-06-10T08:09:48;98402.10;;;24.00;35.55
59154;BME280;44935;48.944;9.418;2023-06-10T08:12:15;98402.30;;;24.15;34.65
59154;BME280;44935;48.944;9.418;2023-06-10T08:14:42;98399.67;;;24.61;34.45
59154;BME280;44935;48.944;9.418;2023-06-10T08:17:10;98395.39;;;24.92;33.98
59154;BME280;44935;48.944;9.418;2023-06-10T08:19:37;98390.46;;;24.24;34.29
59154;BME280;44935;48.944;9.418;2023-06-10T08:22:04;98389.12;;;24.84;33.60
59154;BME280;44935;48.944;9.418;2023-06-10T08:24:32;98386.47;;;25.58;33.55
59154;BME280;44935;48.944;9.418;2023-06-10T08:26:59;98387.55;;;25.35;33.38
59154;BME280;44935;48.944;9.418;2023-06-10T08:29:26;98386.71;;;25.67;32.33
59154;BME280;44935;48.944;9.418;2023-06-10T08:31:53;98387.12;;;24.47;33.68
59154;BME280;44935;48.944;9.418;2023-06-10T08:34:20;98381.91;;;24.14;34.23
59154;BME280;44935;48.944;9.418;2023-06-10T08:36:47;98383.02;;;25.41;32.81
59154;BME280;44935;48.944;9.418;2023-06-10T08:39:14;98380.31;;;25.55;32.09
59154;BME280;44935;48.944;9.418;2023-06-10T08:41:43;98383.30;;;24.60;33.53
59154;BME280;44935;48.944;9.418;2023-06-10T08:44:17;98380.34;;;25.04;32.76
59154;BME280;44935;48.944;9.418;2023-06-10T08:46:49;98384.12;;;25.22;32.62
59154;BME280;44935;48.944;9.418;2023-06-10T08:49:18;98386.66;;;25.93;31.60
59154;BME280;44935;48.944;9.418;2023-06-10T08:51:48;98381.11;;;25.51;31.68
59154;BME280;44935;48.944;9.418;2023-06-10T08:54:20;98386.79;;;25.52;33.30
59154;BME280;44935;48.944;9.418;2023-06-10T08:56:49;98387.54;;;25.60;32.92
59154;BME280;44935;48.944;9.418;2023-06-10T08:59:18;98388.32;;;24.66;32.75
59154;BME280;44935;48.944;9.418;2023-06-10T09:01:47;98388.96;;;25.19;32.71
59154;BME280;44935;48.944;9.418;2023-06-10T09:04:14;98390.03;;;25.14;32.68
59154;BME280;44935;48.944;9.418;2023-06-10T09:06:41;98389.93;;;25.55;31.94
59154;BME280;44935;48.944;9.418;2023-06-10T09:09:08;98384.73;;;24.86;32.54
59154;BME280;44935;48.944;9.418;2023-06-10T09:11:37;98386.29;;;25.15;32.85
59154;BME280;44935;48.944;9.418;2023-06-10T09:14:04;98391.26;;;26.11;31.68
59154;BME280;44935;48.944;9.418;2023-06-10T09:16:31;98385.28;;;26.27;31.34
59154;BME280;44935;48.944;9.418;2023-06-10T09:18:58;98378.10;;;27.07;31.02
59154;BME280;44935;48.944;9.418;2023-06-10T09:21:25;98379.26;;;26.81;30.91
59154;BME280;44935;48.944;9.418;2023-06-10T09:23:52;98380.53;;;26.17;31.51
59154;BME280;44935;48.944;9.418;2023-06-10T09:26:20;98378.72;;;25.98;31.68
59154;BME280;44935;48.944;9.418;2023-06-10T09:29:01;98373.74;;;26.53;30.68
59154;BME280;44935;48.944;9.418;2023-06-10T09:31:29;98374.04;;;26.46;30.85
59154;BME280;44935;48.944;9.418;2023-06-10T09:34:05;98372.66;;;26.70;30.36
59154;BME280;44935;48.944;9.418;2023-06-10T09:36:33;98370.36;;;27.01;30.10
59154;BME280;44935;48.944;9.418;2023-06-10T09:39:00;98372.64;;;26.57;29.64
59154;BME280;44935;48.944;9.418;2023-06-10T09:41:32;98370.68;;;26.67;30.22
59154;BME280;44935;48.944;9.418;2023-06-10T09:43:59;98367.59;;;26.83;29.16
59154;BME280;44935;48.944;9.418;2023-06-10T09:46:30;98371.52;;;27.68;29.04
59154;BME280;44935;48.944;9.418;2023-06-10T09:48:57;98372.66;;;27.72;28.89
59154;BME280;44935;48.944;9.418;2023-06-10T09:51:24;98369.70;;;27.29;28.72
59154;BME280;44935;48.944;9.418;2023-06-10T09:53:52;98366.89;;;26.95;28.45
59154;BME280;44935;48.944;9.418;2023-06-10T09:56:19;98363.60;;;26.64;28.69
59154;BME280;44935;48.944;9.418;2023-06-10T09:58:47;98363.90;;;26.61;28.46
59154;BME280;44935;48.944;9.418;2023-06-10T10:01:14;98364.75;;;26.46;29.74
59154;BME280;44935;48.944;9.418;2023-06-10T10:03:44;98357.04;;;26.44;29.09
59154;BME280;44935;48.944;9.418;2023-06-10T10:06:11;98359.22;;;26.15;29.44
59154;BME280;44935;48.944;9.418;2023-06-10T10:08:39;98351.72;;;26.61;28.14
59154;BME280;44935;48.944;9.418;2023-06-10T10:11:05;98355.56;;;27.48;27.27
59154;BME280;44935;48.944;9.418;2023-06-10T10:13:33;98350.93;;;27.33;27.74
59154;BME280;44935;48.944;9.418;2023-06-10T10:16:03;98353.72;;;27.85;26.90
59154;BME280;44935;48.944;9.418;2023-06-10T10:18:32;98349.56;;;27.07;28.29
59154;BME280;44935;48.944;9.418;2023-06-10T10:21:03;98348.44;;;26.66;27.43
59154;BME280;44935;48.944;9.418;2023-06-10T10:23:34;98344.93;;;26.85;27.99
59154;BME280;44935;48.944;9.418;2023-06-10T10:26:04;98345.44;;;27.73;26.84
59154;BME280;44935;48.944;9.418;2023-06-10T10:28:41;98342.71;;;27.89;26.08
59154;BME280;44935;48.944;9.418;2023-06-10T10:31:09;98343.78;;;27.78;26.94
59154;BME280;44935;48.944;9.418;2023-06-10T10:33:42;98346.88;;;27.90;26.53
59154;BME280;44935;48.944;9.418;2023-06-10T10:36:13;98346.10;;;28.01;27.87
59154;BME280;44935;48.944;9.418;2023-06-10T10:38:41;98341.15;;;27.66;26.98
59154;BME280;44935;48.944;9.418;2023-06-10T10:41:08;98342.25;;;28.24;25.77
59154;BME280;44935;48.944;9.418;2023-06-10T10:43:36;98331.28;;;28.97;25.81
59154;BME280;44935;48.944;9.418;2023-06-10T10:46:11;98341.56;;;27.65;27.80
59154;BME280;44935;48.944;9.418;2023-06-10T10:48:40;98338.12;;;27.42;27.67
59154;BME280;44935;48.944;9.418;2023-06-10T10:51:07;98335.50;;;27.60;28.03
59154;BME280;44935;48.944;9.418;2023-06-10T10:53:34;98335.34;;;28.49;27.02
59154;BME280;44935;48.944;9.418;2023-06-10T10:56:05;98332.17;;;28.46;26.42
59154;BME280;44935;48.944;9.418;2023-06-10T10:58:33;98341.49;;;27.53;28.73
59154;BME280;44935;48.944;9.418;2023-06-10T11:01:10;98334.61;;;27.55;27.32
59154;BME280;44935;48.944;9.418;2023-06-10T11:03:43;98333.08;;;27.92;27.23
59154;BME280;44935;48.944;9.418;2023-06-10T11:06:13;98331.91;;;28.16;26.33
59154;BME280;44935;48.944;9.418;2023-06-10T11:08:47;98329.24;;;28.42;26.56
59154;BME280;44935;48.944;9.418;2023-06-10T11:11:21;98327.96;;;27.55;27.76
59154;BME280;44935;48.944;9.418;2023-06-10T11:14:26;98327.38;;;28.11;27.89
59154;BME280;44935;48.944;9.418;2023-06-10T11:16:56;98324.04;;;27.30;27.41
59154;BME280;44935;48.944;9.418;2023-06-10T11:19:32;98321.16;;;28.00;27.33
59154;BME280;44935;48.944;9.418;2023-06-10T11:22:00;98318.97;;;27.94;27.50
59154;BME280;44935;48.944;9.418;2023-06-10T11:24:28;98317.14;;;28.26;27.10
59154;BME280;44935;48.944;9.418;2023-06-10T11:27:15;98314.12;;;27.75;27.43
59154;BME280;44935;48.944;9.418;2023-06-10T11:29:56;98310.19;;;26.12;28.17
59154;BME280;44935;48.944;9.418;2023-06-10T11:32:23;98313.14;;;26.09;29.07
59154;BME280;44935;48.944;9.418;2023-06-10T11:34:52;98318.45;;;27.00;28.02
59154;BME280;44935;48.944;9.418;2023-06-10T11:37:20;98312.87;;;27.30;27.09
59154;BME280;44935;48.944;9.418;2023-06-10T11:39:47;98312.18;;;26.45;27.67
59154;BME280;44935;48.944;9.418;2023-06-10T11:42:17;98316.63;;;26.92;27.06
59154;BME280;44935;48.944;9.418;2023-06-10T11:44:48;98311.96;;;27.45;27.28
59154;BME280;44935;48.944;9.418;2023-06-10T11:47:16;98312.17;;;27.96;25.61
59154;BME280;44935;48.944;9.418;2023-06-10T11:49:43;98311.57;;;26.77;26.77
59154;BME280;44935;48.944;9.418;2023-06-10T11:52:10;98303.39;;;27.27;26.70
59154;BME280;44935;48.944;9.418;2023-06-10T11:54:37;98299.65;;;27.71;26.10
59154;BME280;44935;48.944;9.418;2023-06-10T11:57:04;98302.06;;;28.86;24.94
59154;BME280;44935;48.944;9.418;2023-06-10T11:59:31;98294.90;;;28.80;25.48
59154;BME280;44935;48.944;9.418;2023-06-10T12:01:59;98294.83;;;28.99;25.40
59154;BME280;44935;48.944;9.418;2023-06-10T12:04:25;98297.97;;;29.00;25.91
59154;BME280;44935;48.944;9.418;2023-06-10T12:06:53;98291.21;;;28.39;26.32
59154;BME280;44935;48.944;9.418;2023-06-10T12:09:21;98295.20;;;28.67;25.33
59154;BME280;44935;48.944;9.418;2023-06-10T12:11:50;98288.57;;;28.76;24.77
59154;BME280;44935;48.944;9.418;2023-06-10T12:14:51;98292.12;;;27.99;24.85
59154;BME280;44935;48.944;9.418;2023-06-10T12:17:18;98291.63;;;27.24;26.13
59154;BME280;44935;48.944;9.418;2023-06-10T12:19:45;98294.61;;;27.62;25.99
59154;BME280;44935;48.944;9.418;2023-06-10T12:22:13;98296.57;;;25.94;26.45
59154;BME280;44935;48.944;9.418;2023-06-10T12:24:45;98290.71;;;26.19;26.52
59154;BME280;44935;48.944;9.418;2023-06-10T12:27:12;98289.63;;;27.20;26.35
59154;BME280;44935;48.944;9.418;2023-06-10T12:29:50;98285.43;;;26.90;26.09
59154;BME280;44935;48.944;9.418;2023-06-10T12:32:18;98292.43;;;27.26;26.83
59154;BME280;44935;48.944;9.418;2023-06-10T12:34:45;98288.17;;;27.06;26.55
59154;BME280;44935;48.944;9.418;2023-06-10T12:37:12;98285.73;;;27.82;26.01
59154;BME280;44935;48.944;9.418;2023-06-10T12:39:41;98289.58;;;27.54;25.49
59154;BME280;44935;48.944;9.418;2023-06-10T12:42:09;98283.98;;;28.29;24.85
59154;BME280;44935;48.944;9.418;2023-06-10T12:44:39;98282.54;;;28.30;25.04
59154;BME280;44935;48.944;9.418;2023-06-10T12:47:09;98286.11;;;27.79;25.26
59154;BME280;44935;48.944;9.418;2023-06-10T12:49:36;98289.62;;;27.62;26.08
59154;BME280;44935;48.944;9.418;2023-06-10T12:52:05;98286.85;;;27.69;25.31
59154;BME280;44935;48.944;9.418;2023-06-10T12:54:32;98287.24;;;26.60;26.17
59154;BME280;44935;48.944;9.418;2023-06-10T12:56:59;98288.55;;;27.56;25.57
59154;BME280;44935;48.944;9.418;2023-06-10T12:59:26;98287.57;;;28.26;25.37
59154;BME280;44935;48.944;9.418;2023-06-10T13:01:54;98283.21;;;27.37;25.85
59154;BME280;44935;48.944;9.418;2023-06-10T13:04:21;98280.50;;;27.51;26.43